Latest Weather Observations for Perisher Valley

IDN60901

Issued at 5:45 pm EST Friday 1 August 2014 (issued every 10 minutes, with the page automatically refreshed every 10 minutes)

About weather observations | Map of Canberra area stations | Latest observations for Canberra area | Other Formats
Station Details ID: 071075 Name: PERISHER VALLEY AWS Lat: -36.41 Lon: 148.41 Height: 1738.0 m
Data from the previous 72 hours. | See also: Recent months at Perisher Valley
Date/Time
EST
Tmp

°C
App
Tmp
°C
Dew
Point
°C
Rel
Hum
%
Delta-T

°C
Wind Press
QNH
hPa
Press
MSL
hPa
Rain
since
9 am
mm
Dir
 
Spd
km/h
Gust
km/h
Spd
kts
Gust
kts
01/05:30pm -5.0 -12.0 -6.7 88 0.3 W 22 46 12 25 - - 10.2
01/05:00pm -4.9 -11.5 -6.6 88 0.3 W 20 44 11 24 - - 9.8
01/04:30pm -4.5 -11.0 -5.7 91 0.2 W 20 33 11 18 - - 9.0
01/04:00pm -4.9 -13.3 -6.3 90 0.3 W 30 54 16 29 - - 7.6
01/03:30pm -4.3 -13.1 -6.0 88 0.4 WNW 32 50 17 27 - - 7.2
01/03:00pm -4.5 -11.4 -6.2 88 0.4 W 22 48 12 26 - - 6.6
01/02:30pm -4.5 -12.2 -6.2 88 0.4 WNW 26 46 14 25 - - 6.2
01/02:00pm -4.0 -10.5 -5.8 87 0.4 W 20 52 11 28 - - 5.6
01/01:30pm -4.5 -9.3 -6.3 87 0.4 W 11 35 6 19 - - 4.0
01/01:00pm -4.4 -8.9 -6.4 86 0.5 NW 9 33 5 18 - - 3.2
01/12:30pm -4.4 -10.0 -6.5 85 0.5 W 15 37 8 20 - - 2.8
01/12:00pm -4.4 -10.0 -6.7 84 0.6 W 15 37 8 20 - - 1.8
01/11:30am -4.4 -11.7 -6.8 83 0.6 W 24 50 13 27 - - 1.6
01/11:00am -4.8 -9.7 -7.1 84 0.5 W 11 33 6 18 - - 1.2
01/10:30am -5.1 -13.6 -7.1 86 0.4 W 30 54 16 29 - - 0.8
01/10:00am -5.0 -10.7 -7.3 84 0.5 W 15 41 8 22 - - 0.6
01/09:30am -5.2 -12.2 -7.0 87 0.4 W 22 39 12 21 - - 0.2
01/09:00am -5.4 -12.9 -8.5 79 0.7 W 24 52 13 28 - - 17.0
01/08:30am -5.6 -12.3 -7.6 86 0.4 W 20 37 11 20 - - 16.8
01/08:00am -6.0 -12.7 -8.1 85 0.4 W 20 46 11 25 - - 16.6
01/07:30am -6.0 -11.8 -8.1 85 0.4 W 15 33 8 18 - - 16.6
01/07:00am -5.7 -12.4 -8.0 84 0.5 W 20 43 11 23 - - 16.6
01/06:30am -5.2 -10.4 -6.7 89 0.3 W 13 33 7 18 - - 16.2
01/06:00am -5.1 -12.4 -6.8 88 0.3 W 24 50 13 27 - - 15.6
01/05:30am -4.5 -11.0 -5.9 90 0.3 W 20 41 11 22 - - 15.0
01/05:00am -4.6 -13.4 -6.1 89 0.3 W 32 52 17 28 - - 14.6
01/04:30am -4.3 -10.8 -6.0 88 0.4 WSW 20 39 11 21 - - 14.4
01/04:00am -3.8 -11.0 -5.2 90 0.3 W 24 56 13 30 - - 14.2
01/03:30am -3.1 -9.2 -4.2 92 0.2 W 19 35 10 19 - - 13.8
01/03:00am -2.8 -9.5 -4.1 91 0.3 WNW 22 50 12 27 - - 12.6
01/02:30am -2.3 -8.4 -3.6 91 0.4 W 19 37 10 20 - - 10.6
01/02:00am -0.6 -6.6 -1.4 94 0.3 W 20 48 11 26 - - 8.8
01/01:30am 0.1 -4.8 -0.7 94 0.3 W 15 41 8 22 - - 6.0
01/01:00am 0.6 -6.0 -0.3 94 0.4 W 24 50 13 27 - - 1.8
01/12:30am 0.4 -4.5 -0.3 95 0.3 W 15 35 8 19 - - 0.2
01/12:00am 1.5 -3.9 -1.7 79 1.3 W 17 44 9 24 - - 0.0
 
Date/Time
EST
Tmp

°C
App
Tmp
°C
Dew
Point
°C
Rel
Hum
%
Delta-T

°C
Wind Press
QNH
hPa
Press
MSL
hPa
Rain
since
9 am
mm
Dir
 
Spd
km/h
Gust
km/h
Spd
kts
Gust
kts
31/11:30pm 3.0 -2.3 -3.3 63 2.4 W 15 41 8 22 - - 0.0
31/11:00pm 3.8 -1.9 -3.7 58 2.9 W 17 46 9 25 - - 0.0
31/10:30pm 4.2 -1.1 -3.5 57 3.0 WNW 15 56 8 30 - - 0.0
31/10:00pm 4.7 0.1 -4.3 52 3.5 W 11 44 6 24 - - 0.0
31/09:30pm 4.8 0.6 -4.2 52 3.5 W 9 30 5 16 - - 0.0
31/09:00pm 4.7 -1.4 -4.3 52 3.5 W 19 46 10 25 - - 0.0
31/08:30pm 4.5 -1.6 -4.2 53 3.3 W 19 50 10 27 - - 0.0
31/08:00pm 4.4 -3.8 -4.1 54 3.3 W 30 72 16 39 - - 0.0
31/07:30pm 4.3 -3.9 -3.7 56 3.1 W 30 65 16 35 - - 0.0
31/07:00pm 4.1 -4.5 -2.7 61 2.7 W 33 83 18 45 - - 0.0
31/06:30pm 4.0 -3.2 -2.0 65 2.4 W 26 67 14 36 - - 0.0
31/06:00pm 3.7 -2.6 -1.3 70 2.0 W 22 54 12 29 - - 0.0
31/05:30pm 3.5 -2.4 -0.9 73 1.8 W 20 56 11 30 - - 0.0
31/05:00pm 3.4 -3.6 -0.6 75 1.7 W 26 59 14 32 - - 0.0
31/04:30pm 3.6 -4.3 -1.2 71 2.0 W 30 80 16 43 - - 0.0
31/04:00pm 3.5 -3.6 -0.9 73 1.8 W 26 70 14 38 - - 0.0
31/03:30pm 3.7 -3.4 -0.9 72 1.9 W 26 67 14 36 - - 0.0
31/03:00pm 3.5 -2.8 -0.7 74 1.7 W 22 57 12 31 - - 0.0
31/02:30pm 3.7 -2.6 -0.7 73 1.8 W 22 56 12 30 - - 0.0
31/02:00pm 3.6 -3.0 -0.6 74 1.7 W 24 46 13 25 - - 0.0
31/01:30pm 3.6 -2.1 -0.6 74 1.7 NW 19 61 10 33 - - 0.0
31/01:00pm 3.4 -2.8 -0.2 77 1.5 W 22 61 12 33 - - 0.0
31/12:30pm 2.9 -3.3 -0.4 79 1.4 W 22 57 12 31 - - 0.0
31/12:00pm 2.6 -4.7 -0.2 82 1.2 W 28 59 15 32 - - 0.0
31/11:30am 2.6 -4.0 -0.3 81 1.2 W 24 56 13 30 - - 0.0
31/11:00am 2.7 -4.6 -0.1 82 1.2 W 28 59 15 32 - - 0.0
31/10:30am 2.9 -4.8 -0.2 80 1.3 W 30 61 16 33 - - 0.0
31/10:00am 2.6 -5.0 0.5 86 0.9 W 30 69 16 37 - - 0.0
31/09:30am 3.0 -2.8 0.1 81 1.2 W 20 41 11 22 - - 0.0
31/09:00am 2.9 -3.6 0.1 82 1.2 W 24 59 13 32 - - 13.6
31/08:30am 3.0 -3.1 0.1 81 1.2 W 22 46 12 25 - - 13.6
31/08:00am 3.0 -3.8 0.6 84 1.0 W 26 59 14 32 - - 13.6
31/07:30am 3.0 -4.6 0.4 83 1.1 W 30 61 16 33 - - 13.6
31/07:00am 2.9 -5.1 0.6 85 1.0 W 32 74 17 40 - - 13.6
31/06:30am 3.0 -5.5 1.2 88 0.8 W 35 67 19 36 - - 13.6
31/06:00am 3.1 -5.0 0.8 85 1.0 W 33 67 18 36 - - 13.6
31/05:30am 3.1 -4.5 0.5 83 1.1 W 30 54 16 29 - - 13.6
31/05:00am 2.9 -4.7 0.3 83 1.1 W 30 63 16 34 - - 13.6
31/04:30am 2.9 -5.1 0.1 82 1.2 W 32 65 17 35 - - 13.6
31/04:00am 2.9 -4.3 0.6 85 1.0 W 28 59 15 32 - - 13.6
31/03:30am 2.8 -6.4 1.2 89 0.7 W 39 78 21 42 - - 13.6
31/03:00am 2.7 -8.6 0.9 88 0.8 W 50 78 27 42 - - 13.6
31/02:30am 2.9 -7.2 1.4 90 0.7 W 44 78 24 42 - - 13.6
31/02:00am 2.9 -4.6 1.1 88 0.8 W 30 72 16 39 - - 13.6
31/01:30am 2.8 -5.6 1.3 90 0.6 W 35 69 19 37 - - 13.6
31/01:00am 2.7 -4.8 1.1 89 0.7 W 30 72 16 39 - - 13.6
31/12:30am 2.7 -6.4 1.7 93 0.4 W 39 76 21 41 - - 13.6
31/12:00am 2.8 -5.2 1.6 92 0.5 W 33 67 18 36 - - 13.2
 
Date/Time
EST
Tmp

°C
App
Tmp
°C
Dew
Point
°C
Rel
Hum
%
Delta-T

°C
Wind Press
QNH
hPa
Press
MSL
hPa
Rain
since
9 am
mm
Dir
 
Spd
km/h
Gust
km/h
Spd
kts
Gust
kts
30/11:30pm 2.8 -9.5 2.1 95 0.3 W 56 100 30 54 - - 13.2
30/11:00pm 2.9 -8.3 2.0 94 0.4 W 50 83 27 45 - - 13.0
30/10:30pm 3.1 -7.0 1.5 89 0.7 W 44 74 24 40 - - 12.8
30/10:00pm 2.8 -9.5 1.9 94 0.4 W 56 83 30 45 - - 12.8
30/09:30pm 2.9 -8.3 2.0 94 0.4 WNW 50 82 27 44 - - 12.8
30/09:00pm 2.8 -7.2 2.2 96 0.3 WNW 44 76 24 41 - - 12.8
30/08:30pm 2.7 -8.9 2.0 95 0.3 WNW 52 85 28 46 - - 12.8
30/08:00pm 2.8 -9.8 1.6 92 0.5 WNW 57 89 31 48 - - 12.8
30/07:30pm 2.8 -8.8 1.8 93 0.4 WNW 52 95 28 51 - - 12.8
30/07:00pm 2.8 -8.7 2.1 95 0.3 WNW 52 83 28 45 - - 12.8
30/06:30pm 2.7 -5.6 2.0 95 0.3 W 35 82 19 44 - - 12.8
30/06:00pm 2.8 -5.6 1.6 92 0.5 W 35 83 19 45 - - 12.8
30/05:30pm 2.4 -5.4 1.8 96 0.3 W 32 72 17 39 - - 12.8
30/05:00pm 2.8 -7.0 2.2 96 0.3 WNW 43 74 23 40 - - 12.2
30/04:30pm 2.6 -7.2 2.3 98 0.1 W 43 67 23 36 - - 11.8
30/04:00pm 2.7 -5.2 2.3 97 0.2 W 33 65 18 35 - - 11.4
30/03:30pm 2.6 -4.0 2.2 97 0.2 W 26 61 14 33 - - 10.6
30/03:00pm 2.6 -3.2 2.2 97 0.2 W 22 44 12 24 - - 9.8
30/02:30pm 2.9 -1.6 2.0 94 0.4 W 15 41 8 22 - - 8.8
30/02:00pm 2.8 -3.8 2.2 96 0.3 W 26 63 14 34 - - 8.2
30/01:30pm 3.0 -5.3 2.1 94 0.4 W 35 72 19 39 - - 7.2
30/01:00pm 2.8 -7.0 2.1 95 0.3 W 43 74 23 40 - - 6.4
30/12:30pm 3.2 -4.5 2.2 93 0.4 W 32 59 17 32 - - 6.0
30/12:00pm 3.0 -4.7 2.1 94 0.4 W 32 61 17 33 - - 5.2
30/11:30am 2.9 -3.3 2.3 96 0.3 W 24 56 13 30 - - 3.8
30/11:00am 3.1 -2.7 2.2 94 0.4 W 22 54 12 29 - - 3.2
30/10:30am 2.9 -2.3 2.2 95 0.3 W 19 41 10 22 - - 2.4
30/10:00am 2.9 -1.2 2.2 95 0.3 W 13 39 7 21 - - 1.8
30/09:30am 3.1 -1.7 2.4 95 0.3 WNW 17 43 9 23 - - 0.8
30/09:00am 2.8 -2.4 2.5 98 0.1 W 19 43 10 23 - - 16.2
30/08:30am 2.6 -4.0 2.2 97 0.2 W 26 57 14 31 - - 15.6
30/08:00am 2.8 -4.9 2.2 96 0.3 WNW 32 50 17 27 - - 14.8
30/07:30am 2.6 -2.9 2.0 96 0.3 W 20 67 11 36 - - 13.8
30/07:00am 2.6 -5.2 1.9 95 0.3 W 32 78 17 42 - - 13.4
30/06:30am 2.6 -4.4 2.2 97 0.2 W 28 65 15 35 - - 13.0
30/06:00am 2.6 -5.7 2.2 97 0.2 W 35 69 19 37 - - 12.4
30/05:30am 2.4 -5.5 2.1 98 0.1 W 33 70 18 38 - - 12.0
30/05:00am 2.5 -6.5 2.2 98 0.1 W 39 82 21 44 - - 11.8
30/04:30am 2.5 -7.3 2.1 97 0.2 W 43 82 23 44 - - 11.6
30/04:00am 2.6 -7.2 2.3 98 0.1 W 43 98 23 53 - - 10.8
30/03:30am 2.5 -6.9 2.2 98 0.1 W 41 72 22 39 - - 9.6
30/03:00am 2.4 -7.0 2.1 98 0.1 W 41 78 22 42 - - 8.2
30/02:30am 2.4 -6.7 2.1 98 0.1 W 39 69 21 37 - - 6.8
30/02:00am 2.4 -7.6 2.3 99 0.0 W 44 93 24 50 - - 5.8
30/01:30am 2.5 -7.5 2.4 99 0.0 W 44 74 24 40 - - 5.0
30/01:00am 2.4 -10.1 2.3 99 0.0 WNW 57 93 31 50 - - 3.8
30/12:30am 2.3 -10.0 2.2 99 0.0 WNW 56 96 30 52 - - 2.6
30/12:00am 2.0 -9.2 1.9 99 0.0 WNW 50 82 27 44 - - 2.4
 
Date/Time
EST
Tmp

°C
App
Tmp
°C
Dew
Point
°C
Rel
Hum
%
Delta-T

°C
Wind Press
QNH
hPa
Press
MSL
hPa
Rain
since
9 am
mm
Dir
 
Spd
km/h
Gust
km/h
Spd
kts
Gust
kts
29/11:30pm 1.8 -9.4 1.7 99 0.0 WNW 50 76 27 41 - - 2.4
29/11:00pm 1.5 -9.4 1.2 98 0.1 WNW 48 78 26 42 - - 2.0
29/10:30pm 1.4 -8.9 0.5 94 0.4 W 44 74 24 40 - - 1.4
29/10:00pm 1.6 -10.2 0.4 92 0.5 W 52 91 28 49 - - 0.6
29/09:30pm 1.3 -9.8 0.1 92 0.5 W 48 74 26 40 - - 0.6
29/09:00pm 1.4 -11.3 -0.2 89 0.7 W 56 89 30 48 - - 0.4
29/08:30pm 1.8 -11.1 -0.6 84 1.0 W 57 87 31 47 - - 0.0
29/08:00pm 1.7 -9.9 -0.7 84 1.0 W 50 82 27 44 - - 0.0
29/07:30pm 1.9 -8.0 -0.8 82 1.1 W 41 80 22 43 - - 0.0
29/07:00pm 1.5 -7.1 0.0 90 0.6 W 35 61 19 33 - - 0.0
29/06:30pm 1.4 -5.8 0.5 94 0.4 W 28 54 15 29 - - 0.0
29/06:00pm 1.4 -5.8 0.4 93 0.4 W 28 61 15 33 - - 0.0

Latest Capital City Observations: Canberra | Sydney | Melbourne | Brisbane | Adelaide | Perth | Hobart | Darwin

Other Formats:

Comma delimited format used in spreadsheet applications
http://www.bom.gov.au/fwo/IDN60903/IDN60903.94915.axf

JavaScript Object Notation format (JSON) in row-major order
http://www.bom.gov.au/fwo/IDN60903/IDN60903.94915.json